createdAt,value
2018-11-03T00:01:04.005Z,27.50
2018-11-03T00:03:32.707Z,26.50
2018-11-03T00:06:01.411Z,25.80
2018-11-03T00:08:30.072Z,26.67
2018-11-03T00:11:13.648Z,25.60
2018-11-03T00:13:42.312Z,26.17
2018-11-03T00:16:10.985Z,28.33
2018-11-03T00:18:39.622Z,26.73
2018-11-03T00:21:08.307Z,28.70
2018-11-03T00:23:36.939Z,26.33
2018-11-03T00:26:05.588Z,26.90
2018-11-03T00:28:34.275Z,27.70
2018-11-03T00:31:02.930Z,25.87
2018-11-03T00:33:31.572Z,26.33
2018-11-03T00:36:00.242Z,26.73
2018-11-03T00:38:28.894Z,25.87
2018-11-03T00:40:57.525Z,24.77
2018-11-03T00:43:26.140Z,23.93
2018-11-03T00:45:54.778Z,26.27
2018-11-03T00:48:23.426Z,26.60
2018-11-03T00:50:52.053Z,26.37
2018-11-03T00:53:20.669Z,25.67
2018-11-03T00:55:49.284Z,24.60
2018-11-03T00:58:17.959Z,26.00
2018-11-03T01:00:46.587Z,25.63
2018-11-03T01:03:15.228Z,27.10
2018-11-03T01:05:43.887Z,27.53
2018-11-03T01:08:12.519Z,26.47
2018-11-03T01:10:41.167Z,26.83
2018-11-03T01:13:10.548Z,25.90
2018-11-03T01:15:39.160Z,27.90
2018-11-03T01:18:07.771Z,27.17
2018-11-03T01:20:36.404Z,27.53
2018-11-03T01:23:05.668Z,26.43
2018-11-03T01:25:34.316Z,26.07
2018-11-03T01:28:02.940Z,29.37
2018-11-03T01:30:31.573Z,29.30
2018-11-03T01:33:00.270Z,28.57
2018-11-03T01:35:28.891Z,27.37
2018-11-03T01:37:57.557Z,29.27
2018-11-03T01:40:26.159Z,29.20
2018-11-03T01:42:54.791Z,29.53
2018-11-03T01:45:23.476Z,28.47
2018-11-03T01:47:52.097Z,30.50
2018-11-03T01:50:20.727Z,28.77
2018-11-03T01:52:49.370Z,28.93
2018-11-03T01:55:18.011Z,30.10
2018-11-03T01:57:46.643Z,29.80
2018-11-03T02:00:15.919Z,30.70
2018-11-03T02:02:44.540Z,29.50
2018-11-03T02:05:14.052Z,29.30
2018-11-03T02:07:42.709Z,30.57
2018-11-03T02:10:12.035Z,31.60
2018-11-03T02:12:41.057Z,30.27
2018-11-03T02:15:10.091Z,30.90
2018-11-03T02:17:38.765Z,30.93
2018-11-03T02:20:08.552Z,32.43
2018-11-03T02:22:37.915Z,31.67
2018-11-03T02:25:06.836Z,31.33
2018-11-03T02:27:35.433Z,32.90
2018-11-03T02:30:04.100Z,33.13
2018-11-03T02:32:32.758Z,31.83
2018-11-03T02:35:01.357Z,31.90
2018-11-03T02:37:30.014Z,30.90
2018-11-03T02:39:59.206Z,33.10
2018-11-03T02:42:27.892Z,33.67
2018-11-03T02:44:56.492Z,32.47
2018-11-03T02:47:25.242Z,33.47
2018-11-03T02:49:53.864Z,33.10
2018-11-03T02:52:22.532Z,32.17
2018-11-03T02:54:51.151Z,34.03
2018-11-03T02:57:19.804Z,32.90
2018-11-03T02:59:55.109Z,31.80
2018-11-03T03:02:23.820Z,32.53
2018-11-03T03:04:52.507Z,33.40
2018-11-03T03:07:21.155Z,32.10
2018-11-03T03:09:49.860Z,31.70
2018-11-03T03:12:18.472Z,33.13
2018-11-03T03:14:47.113Z,32.87
2018-11-03T03:17:15.720Z,31.57
2018-11-03T03:19:44.414Z,30.57
2018-11-03T03:22:13.032Z,32.60
2018-11-03T03:24:41.626Z,32.80
2018-11-03T03:27:10.276Z,31.67
2018-11-03T03:29:39.301Z,31.73
2018-11-03T03:32:07.924Z,33.23
2018-11-03T03:34:36.540Z,34.00
2018-11-03T03:37:05.476Z,32.50
2018-11-03T03:39:34.128Z,32.67
2018-11-03T03:42:02.731Z,31.50
2018-11-03T03:44:31.323Z,33.97
2018-11-03T03:46:59.956Z,33.50
2018-11-03T03:49:28.625Z,31.50
2018-11-03T03:51:57.226Z,32.50
2018-11-03T03:54:25.863Z,30.47
2018-11-03T03:56:54.483Z,32.37
2018-11-03T03:59:23.121Z,33.00
2018-11-03T04:01:51.791Z,33.07
2018-11-03T04:04:20.607Z,30.00
2018-11-03T04:06:49.237Z,31.47
2018-11-03T04:09:17.965Z,31.07
2018-11-03T04:11:46.604Z,30.80
2018-11-03T04:14:15.216Z,32.07
2018-11-03T04:16:43.831Z,30.67
2018-11-03T04:19:12.489Z,31.83
2018-11-03T04:21:41.130Z,32.20
2018-11-03T04:24:09.799Z,31.77
2018-11-03T04:26:38.470Z,31.00
2018-11-03T04:29:07.222Z,28.93
2018-11-03T04:31:35.804Z,29.90
2018-11-03T04:34:04.463Z,30.10
2018-11-03T04:36:33.118Z,29.37
2018-11-03T04:39:01.846Z,29.03
2018-11-03T04:41:30.491Z,30.73
2018-11-03T04:43:59.115Z,31.83
2018-11-03T04:46:27.700Z,31.47
2018-11-03T04:49:02.427Z,33.43
2018-11-03T04:51:32.424Z,30.10
2018-11-03T04:54:01.053Z,28.30
2018-11-03T04:56:29.707Z,26.93
2018-11-03T04:58:58.469Z,28.27
2018-11-03T05:01:27.154Z,29.30
2018-11-03T05:03:55.784Z,27.30
2018-11-03T05:06:24.516Z,28.67
2018-11-03T05:08:53.220Z,29.10
2018-11-03T05:11:21.920Z,27.70
2018-11-03T05:13:50.541Z,29.23
2018-11-03T05:16:19.244Z,29.57
2018-11-03T05:18:47.888Z,31.23
2018-11-03T05:21:16.568Z,31.30
2018-11-03T05:23:45.248Z,28.23
2018-11-03T05:26:13.911Z,29.73
2018-11-03T05:28:42.545Z,28.53
2018-11-03T05:31:11.253Z,29.30
2018-11-03T05:33:40.223Z,28.37
2018-11-03T05:36:08.841Z,29.00
2018-11-03T05:38:37.499Z,29.40
2018-11-03T05:41:06.436Z,28.90
2018-11-03T05:43:35.080Z,28.60
2018-11-03T05:46:03.707Z,29.90
2018-11-03T05:48:32.370Z,27.63
2018-11-03T05:51:00.988Z,30.43
2018-11-03T05:53:29.592Z,28.27
2018-11-03T05:55:58.282Z,26.70
2018-11-03T05:58:26.914Z,29.57
2018-11-03T06:00:55.533Z,30.57
2018-11-03T06:03:24.212Z,27.90
2018-11-03T06:05:52.821Z,26.60
2018-11-03T06:08:21.461Z,30.60
2018-11-03T06:10:50.108Z,29.30
2018-11-03T06:13:18.716Z,26.90
2018-11-03T06:15:47.329Z,27.33
2018-11-03T06:18:15.938Z,27.00
2018-11-03T06:20:44.565Z,29.83
2018-11-03T06:23:13.283Z,31.90
2018-11-03T06:25:41.846Z,30.10
2018-11-03T06:28:10.565Z,32.53
2018-11-03T06:30:39.176Z,30.50
2018-11-03T06:33:14.529Z,33.07
2018-11-03T06:35:43.164Z,30.07
2018-11-03T06:38:11.769Z,28.67
2018-11-03T06:40:40.474Z,29.23
2018-11-03T06:43:09.067Z,24.80
2018-11-03T06:45:37.706Z,24.00
2018-11-03T06:48:06.450Z,24.50
2018-11-03T06:50:35.054Z,26.03
2018-11-03T06:53:03.685Z,24.73
2018-11-03T06:55:32.282Z,27.07
2018-11-03T06:58:01.060Z,25.57
2018-11-03T07:00:29.676Z,28.60
2018-11-03T07:02:58.335Z,26.60
2018-11-03T07:05:26.988Z,31.23
2018-11-03T07:07:55.643Z,31.10
2018-11-03T07:10:24.381Z,31.40
2018-11-03T07:12:53.034Z,30.07
2018-11-03T07:15:21.606Z,37.97
2018-11-03T07:17:50.267Z,35.63
2018-11-03T07:20:18.921Z,34.50
2018-11-03T07:22:47.562Z,31.63
2018-11-03T07:25:16.239Z,32.63
2018-11-03T07:27:44.916Z,31.47
2018-11-03T07:30:13.644Z,33.57
2018-11-03T07:32:42.268Z,35.70
2018-11-03T07:35:10.889Z,36.97
2018-11-03T07:37:39.557Z,32.93
2018-11-03T07:40:09.204Z,35.60
2018-11-03T07:42:37.963Z,35.63
2018-11-03T07:45:07.118Z,34.37
2018-11-03T07:47:35.745Z,35.03
2018-11-03T07:50:06.610Z,35.07
2018-11-03T07:52:35.244Z,36.93
2018-11-03T07:55:04.150Z,36.60
2018-11-03T07:57:32.853Z,40.07
2018-11-03T08:00:01.573Z,36.87
2018-11-03T08:02:30.237Z,39.53
2018-11-03T08:04:58.932Z,37.60
2018-11-03T08:07:27.613Z,36.87
2018-11-03T08:09:56.240Z,36.67
2018-11-03T08:12:24.937Z,33.73
2018-11-03T08:14:53.644Z,38.43
2018-11-03T08:17:22.347Z,37.97
2018-11-03T08:19:51.059Z,34.50
2018-11-03T08:22:19.750Z,37.90
2018-11-03T08:24:48.336Z,36.30
2018-11-03T08:27:16.961Z,35.87
2018-11-03T08:29:45.714Z,37.17
2018-11-03T08:32:14.364Z,36.17
2018-11-03T08:34:43.468Z,37.47
2018-11-03T08:37:12.102Z,37.50
2018-11-03T08:39:40.859Z,37.47
2018-11-03T08:42:09.388Z,36.33
2018-11-03T08:44:38.015Z,35.27
2018-11-03T08:47:06.722Z,33.80
2018-11-03T08:49:35.780Z,31.47
2018-11-03T08:52:04.536Z,28.87
2018-11-03T08:54:33.223Z,30.67
2018-11-03T08:57:01.952Z,29.70
2018-11-03T08:59:30.593Z,28.87
2018-11-03T09:01:59.235Z,30.43
2018-11-03T09:04:27.880Z,27.90
2018-11-03T09:06:56.579Z,28.07
2018-11-03T09:09:25.150Z,25.83
2018-11-03T09:11:53.831Z,26.93
2018-11-03T09:14:22.437Z,28.73
2018-11-03T09:16:51.273Z,27.70
2018-11-03T09:19:19.969Z,28.47
2018-11-03T09:21:48.717Z,27.67
2018-11-03T09:24:17.292Z,26.10
2018-11-03T09:26:45.959Z,24.87
2018-11-03T09:29:14.640Z,26.20
2018-11-03T09:31:43.309Z,26.47
2018-11-03T09:34:12.046Z,25.40
2018-11-03T09:36:40.657Z,25.30
2018-11-03T09:39:10.143Z,24.80
2018-11-03T09:41:39.628Z,25.40
2018-11-03T09:44:08.297Z,25.70
2018-11-03T09:46:36.909Z,24.80
2018-11-03T09:49:05.764Z,25.70
2018-11-03T09:51:34.420Z,23.93
2018-11-03T09:54:03.105Z,24.77
2018-11-03T09:56:31.770Z,25.60
2018-11-03T09:59:00.419Z,23.33
2018-11-03T10:01:29.035Z,25.03
2018-11-03T10:03:57.740Z,24.40
2018-11-03T10:06:26.573Z,26.60
2018-11-03T10:08:55.385Z,24.03
2018-11-03T10:11:24.056Z,24.90
2018-11-03T10:13:52.731Z,23.20
2018-11-03T10:16:21.398Z,26.23
2018-11-03T10:18:50.052Z,24.37
2018-11-03T10:21:18.661Z,29.20
2018-11-03T10:23:47.323Z,28.70
2018-11-03T10:26:15.978Z,30.10
2018-11-03T10:28:44.657Z,28.23
2018-11-03T10:31:13.354Z,28.70
2018-11-03T10:33:42.129Z,28.90
2018-11-03T10:36:10.662Z,30.50
2018-11-03T10:38:39.370Z,28.77
2018-11-03T10:41:07.976Z,28.23
2018-11-03T10:43:36.604Z,30.87
2018-11-03T10:46:05.761Z,31.73
2018-11-03T10:48:34.484Z,30.27
2018-11-03T10:51:03.160Z,30.30
2018-11-03T10:53:31.830Z,32.23
2018-11-03T10:56:00.437Z,30.37
2018-11-03T10:58:29.110Z,33.40
2018-11-03T11:01:03.214Z,30.47
2018-11-03T11:03:37.503Z,31.90
2018-11-03T11:06:11.832Z,33.03
2018-11-03T11:08:45.922Z,31.30
2018-11-03T11:11:20.184Z,31.77
2018-11-03T11:13:48.894Z,32.07
2018-11-03T11:16:17.571Z,29.23
2018-11-03T11:18:46.172Z,29.70
2018-11-03T11:21:14.809Z,28.63
2018-11-03T11:23:43.588Z,31.33
2018-11-03T11:26:12.139Z,29.43
2018-11-03T11:28:40.828Z,31.70
2018-11-03T11:31:09.519Z,29.07
2018-11-03T11:33:38.145Z,31.07
2018-11-03T11:36:06.791Z,31.63
2018-11-03T11:38:35.490Z,31.27
2018-11-03T11:41:04.448Z,30.20
2018-11-03T11:43:33.108Z,30.30
2018-11-03T11:46:01.788Z,28.63
2018-11-03T11:48:30.461Z,29.87
2018-11-03T11:50:59.188Z,28.57
2018-11-03T11:53:27.767Z,29.10
2018-11-03T11:55:56.495Z,31.30
2018-11-03T11:58:25.183Z,28.93
2018-11-03T12:00:53.879Z,28.97
2018-11-03T12:03:22.527Z,28.47
2018-11-03T12:05:51.192Z,29.17
2018-11-03T12:08:19.897Z,26.80
2018-11-03T12:10:48.547Z,27.47
2018-11-03T12:13:17.226Z,29.37
2018-11-03T12:15:45.848Z,27.20
2018-11-03T12:18:14.494Z,28.23
2018-11-03T12:20:43.167Z,26.77
2018-11-03T12:23:11.794Z,26.70
2018-11-03T12:25:40.549Z,26.83
2018-11-03T12:28:09.102Z,28.47
2018-11-03T12:30:37.809Z,27.17
2018-11-03T12:33:06.514Z,28.70
2018-11-03T12:35:35.126Z,28.33
2018-11-03T12:38:03.754Z,27.73
2018-11-03T12:40:32.516Z,28.90
2018-11-03T12:43:01.137Z,31.57
2018-11-03T12:45:29.794Z,29.23
2018-11-03T12:47:58.501Z,30.80
2018-11-03T12:50:27.103Z,29.23
2018-11-03T12:52:55.785Z,31.47
2018-11-03T12:55:24.478Z,29.27
2018-11-03T12:57:53.165Z,29.83
2018-11-03T13:00:21.825Z,29.20
2018-11-03T13:02:50.540Z,27.43
2018-11-03T13:05:19.384Z,31.30
2018-11-03T13:07:47.995Z,30.87
2018-11-03T13:10:16.681Z,29.43
2018-11-03T13:12:45.348Z,30.67
2018-11-03T13:15:14.191Z,29.43
2018-11-03T13:17:42.856Z,28.40
2018-11-03T13:20:12.597Z,27.80
2018-11-03T13:22:41.839Z,28.73
2018-11-03T13:25:11.113Z,28.67
2018-11-03T13:27:40.307Z,29.93
2018-11-03T13:30:10.890Z,31.33
2018-11-03T13:32:39.655Z,29.47
2018-11-03T13:35:09.388Z,29.50
2018-11-03T13:37:38.267Z,29.50
2018-11-03T13:40:07.925Z,28.27
2018-11-03T13:42:36.562Z,30.33
2018-11-03T13:45:06.504Z,30.60
2018-11-03T13:47:35.648Z,27.77
2018-11-03T13:50:09.436Z,29.37
2018-11-03T13:52:38.048Z,28.83
2018-11-03T13:55:07.184Z,31.77
2018-11-03T13:57:35.869Z,28.70
2018-11-03T14:00:05.429Z,28.47
2018-11-03T14:02:34.367Z,28.87
2018-11-03T14:05:03.028Z,29.73
2018-11-03T14:07:31.691Z,29.60
2018-11-03T14:10:00.388Z,29.57
2018-11-03T14:12:29.047Z,30.53
2018-11-03T14:14:57.826Z,30.40
2018-11-03T14:17:26.624Z,33.27
2018-11-03T14:19:55.342Z,31.90
2018-11-03T14:22:24.125Z,33.33
2018-11-03T14:24:52.846Z,33.40
2018-11-03T14:27:21.550Z,35.37
2018-11-03T14:29:50.273Z,34.93
2018-11-03T14:32:18.919Z,34.00
2018-11-03T14:34:47.559Z,34.40
2018-11-03T14:37:16.256Z,34.00
2018-11-03T14:39:44.958Z,37.33
2018-11-03T14:42:13.608Z,35.87
2018-11-03T14:44:42.302Z,35.43
2018-11-03T14:47:10.905Z,36.37
2018-11-03T14:49:39.592Z,36.10
2018-11-03T14:52:08.276Z,34.77
2018-11-03T14:54:36.936Z,35.57
2018-11-03T14:57:05.591Z,37.97
2018-11-03T14:59:34.243Z,38.03
2018-11-03T15:02:02.893Z,34.90
2018-11-03T15:04:31.578Z,35.93
2018-11-03T15:07:00.255Z,36.20
2018-11-03T15:09:28.924Z,35.90
2018-11-03T15:11:57.609Z,37.47
2018-11-03T15:14:26.392Z,33.77
2018-11-03T15:16:54.968Z,36.00
2018-11-03T15:19:23.642Z,34.37
2018-11-03T15:21:52.363Z,32.67
2018-11-03T15:24:21.019Z,32.50
2018-11-03T15:26:49.668Z,33.30
2018-11-03T15:29:18.280Z,31.20
2018-11-03T15:31:46.956Z,33.17
2018-11-03T15:34:15.588Z,32.40
2018-11-03T15:36:44.267Z,30.37
2018-11-03T15:39:12.916Z,31.53
2018-11-03T15:41:41.594Z,32.30
2018-11-03T15:44:10.273Z,33.30
2018-11-03T15:46:39.004Z,33.50
2018-11-03T15:49:07.628Z,31.47
2018-11-03T15:51:36.310Z,32.37
2018-11-03T15:54:05.305Z,29.70
2018-11-03T15:56:33.979Z,32.63
2018-11-03T15:59:02.685Z,28.57
2018-11-03T16:01:31.346Z,31.27
2018-11-03T16:04:00.023Z,33.97
2018-11-03T16:06:28.696Z,30.57
2018-11-03T16:08:57.529Z,30.60
2018-11-03T16:11:26.219Z,32.73
2018-11-03T16:13:54.901Z,33.77
2018-11-03T16:16:23.550Z,33.20
2018-11-03T16:18:52.244Z,32.47
2018-11-03T16:21:20.940Z,31.30
2018-11-03T16:23:49.632Z,30.23
2018-11-03T16:26:18.435Z,32.30
2018-11-03T16:28:47.085Z,31.73
2018-11-03T16:31:15.844Z,32.90
2018-11-03T16:33:44.527Z,33.90
2018-11-03T16:36:13.167Z,34.33
2018-11-03T16:38:41.878Z,34.47
2018-11-03T16:41:11.316Z,33.87
2018-11-03T16:43:39.940Z,34.47
2018-11-03T16:46:09.466Z,33.40
2018-11-03T16:48:38.185Z,36.37
2018-11-03T16:51:06.939Z,36.20
2018-11-03T16:53:35.588Z,37.60
2018-11-03T16:56:04.322Z,36.63
2018-11-03T16:58:33.041Z,38.23
2018-11-03T17:01:01.673Z,37.17
2018-11-03T17:03:30.321Z,36.17
2018-11-03T17:05:58.972Z,38.73
2018-11-03T17:08:27.673Z,35.07
2018-11-03T17:10:56.346Z,38.10
2018-11-03T17:13:25.034Z,34.93
2018-11-03T17:15:53.791Z,38.23
2018-11-03T17:18:22.495Z,37.30
2018-11-03T17:20:51.122Z,37.17
2018-11-03T17:23:20.022Z,40.90
2018-11-03T17:25:48.639Z,39.93
2018-11-03T17:28:17.272Z,41.87
2018-11-03T17:30:45.999Z,41.10
2018-11-03T17:33:14.623Z,40.70
2018-11-03T17:35:43.333Z,41.97
2018-11-03T17:38:12.020Z,42.10
2018-11-03T17:40:41.520Z,43.30
2018-11-03T17:43:10.240Z,44.27
2018-11-03T17:45:39.006Z,45.30
2018-11-03T17:48:07.666Z,44.63
2018-11-03T17:50:36.386Z,47.10
2018-11-03T17:53:05.435Z,46.30
2018-11-03T17:55:34.100Z,44.37
2018-11-03T17:58:02.817Z,45.70
2018-11-03T18:00:32.542Z,44.20
2018-11-03T18:03:00.932Z,43.33
2018-11-03T18:05:29.833Z,47.03
2018-11-03T18:07:58.460Z,43.47
2018-11-03T18:10:27.128Z,45.60
2018-11-03T18:12:55.794Z,49.83
2018-11-03T18:15:24.493Z,51.03
2018-11-03T18:17:53.208Z,49.40
2018-11-03T18:20:22.122Z,44.90
2018-11-03T18:22:50.736Z,48.97
2018-11-03T18:25:19.449Z,46.17
2018-11-03T18:27:49.360Z,45.73
2018-11-03T18:30:18.036Z,44.93
2018-11-03T18:32:46.719Z,42.90
2018-11-03T18:35:15.494Z,43.63
2018-11-03T18:37:44.162Z,45.60
2018-11-03T18:40:12.832Z,46.80
2018-11-03T18:42:41.500Z,45.13
2018-11-03T18:45:11.733Z,44.10
2018-11-03T18:47:40.447Z,46.40
2018-11-03T18:50:11.255Z,44.73
2018-11-03T18:52:40.711Z,46.60
2018-11-03T18:55:09.970Z,44.30
2018-11-03T18:57:39.471Z,45.27
2018-11-03T19:00:09.568Z,45.10
2018-11-03T19:02:38.601Z,44.10
2018-11-03T19:05:08.607Z,43.83
2018-11-03T19:07:37.497Z,45.07
2018-11-03T19:10:07.033Z,49.30
2018-11-03T19:12:35.880Z,42.43
2018-11-03T19:15:05.110Z,41.20
2018-11-03T19:17:33.816Z,40.77
2018-11-03T19:20:02.455Z,43.50
2018-11-03T19:22:31.771Z,42.37
2018-11-03T19:25:00.516Z,40.87
2018-11-03T19:27:29.281Z,43.57
2018-11-03T19:29:57.911Z,43.17
2018-11-03T19:32:26.717Z,45.47
2018-11-03T19:34:55.435Z,46.03
2018-11-03T19:37:24.111Z,46.80
2018-11-03T19:39:52.770Z,45.63
2018-11-03T19:42:21.611Z,45.30
2018-11-03T19:44:50.308Z,45.07
2018-11-03T19:47:19.158Z,44.60
2018-11-03T19:49:47.937Z,45.97
2018-11-03T19:52:16.939Z,39.97
2018-11-03T19:54:45.820Z,41.90
2018-11-03T19:57:14.611Z,43.37
2018-11-03T19:59:43.396Z,42.70
2018-11-03T20:02:12.043Z,42.37
2018-11-03T20:04:40.788Z,41.30
2018-11-03T20:07:09.534Z,41.60
2018-11-03T20:09:38.239Z,40.27
2018-11-03T20:12:07.396Z,41.20
2018-11-03T20:14:36.108Z,39.47
2018-11-03T20:17:04.908Z,43.47
2018-11-03T20:19:33.796Z,43.17
2018-11-03T20:22:02.549Z,42.83
2018-11-03T20:24:31.193Z,42.70
2018-11-03T20:27:00.143Z,42.60
2018-11-03T20:29:28.927Z,43.57
2018-11-03T20:31:57.689Z,41.83
2018-11-03T20:34:26.469Z,38.17
2018-11-03T20:36:55.205Z,40.90
2018-11-03T20:39:23.943Z,41.23
2018-11-03T20:41:52.804Z,41.80
2018-11-03T20:44:21.465Z,40.40
2018-11-03T20:46:50.237Z,39.10
2018-11-03T20:49:19.175Z,38.03
2018-11-03T20:51:47.895Z,37.27
2018-11-03T20:54:16.681Z,37.63
2018-11-03T20:56:45.438Z,36.40
2018-11-03T20:59:14.233Z,35.57
2018-11-03T21:01:42.965Z,34.73
2018-11-03T21:04:11.785Z,35.90
2018-11-03T21:06:40.470Z,36.97
2018-11-03T21:09:09.930Z,36.73
2018-11-03T21:11:38.779Z,38.90
2018-11-03T21:14:07.476Z,36.53
2018-11-03T21:16:36.174Z,35.40
2018-11-03T21:19:05.261Z,35.47
2018-11-03T21:21:33.931Z,38.20
2018-11-03T21:24:02.833Z,35.87
2018-11-03T21:26:31.339Z,36.50
2018-11-03T21:29:00.056Z,34.83
2018-11-03T21:31:28.752Z,35.50
2018-11-03T21:33:57.473Z,35.53
2018-11-03T21:36:26.182Z,33.80
2018-11-03T21:38:54.890Z,35.80
2018-11-03T21:41:23.832Z,34.23
2018-11-03T21:43:52.712Z,33.40
2018-11-03T21:46:21.443Z,35.20
2018-11-03T21:48:50.129Z,35.27
2018-11-03T21:51:19.695Z,34.00
2018-11-03T21:53:48.363Z,34.60
2018-11-03T21:56:17.044Z,35.60
2018-11-03T21:58:45.751Z,32.60
2018-11-03T22:01:14.460Z,33.40
2018-11-03T22:03:43.141Z,31.40
2018-11-03T22:06:11.820Z,35.77
2018-11-03T22:08:40.495Z,35.67
2018-11-03T22:11:09.216Z,35.67
2018-11-03T22:13:37.916Z,34.70
2018-11-03T22:16:06.583Z,31.87
2018-11-03T22:18:35.224Z,34.50
2018-11-03T22:21:03.954Z,32.77
2018-11-03T22:23:32.641Z,33.50
2018-11-03T22:26:01.374Z,33.93
2018-11-03T22:28:30.029Z,32.77
2018-11-03T22:30:58.680Z,31.47
2018-11-03T22:33:27.410Z,33.53
2018-11-03T22:35:56.069Z,34.97
2018-11-03T22:38:24.757Z,33.37
2018-11-03T22:40:53.477Z,33.20
2018-11-03T22:43:22.170Z,33.63
2018-11-03T22:45:50.852Z,35.70
2018-11-03T22:48:19.539Z,33.40
2018-11-03T22:50:48.240Z,35.63
2018-11-03T22:53:16.845Z,33.07
2018-11-03T22:55:45.530Z,34.10
2018-11-03T22:58:14.226Z,35.77
2018-11-03T23:00:48.584Z,32.77
2018-11-03T23:03:17.364Z,31.50
2018-11-03T23:05:46.133Z,33.17
2018-11-03T23:08:14.826Z,31.57
2018-11-03T23:10:43.539Z,33.90
2018-11-03T23:13:12.353Z,32.40
2018-11-03T23:15:40.924Z,33.73
2018-11-03T23:18:09.600Z,34.83
2018-11-03T23:20:38.287Z,33.30
2018-11-03T23:23:07.009Z,32.43
2018-11-03T23:25:35.656Z,33.60
2018-11-03T23:28:04.647Z,33.27
2018-11-03T23:30:33.500Z,30.73
2018-11-03T23:33:02.331Z,32.40
2018-11-03T23:35:31.030Z,34.83
2018-11-03T23:37:59.737Z,34.53
2018-11-03T23:40:28.745Z,32.03
2018-11-03T23:42:57.447Z,32.37
2018-11-03T23:45:26.084Z,33.50
2018-11-03T23:47:54.776Z,34.30
2018-11-03T23:50:23.502Z,34.97
2018-11-03T23:52:52.169Z,32.07
2018-11-03T23:55:20.931Z,33.00
2018-11-03T23:57:49.550Z,34.67
